createdAt,value
2023-03-30T00:01:15.070Z,4.63
2023-03-30T00:03:44.895Z,4.75
2023-03-30T00:06:21.208Z,4.35
2023-03-30T00:08:49.574Z,4.15
2023-03-30T00:11:19.975Z,4.05
2023-03-30T00:13:48.118Z,3.65
2023-03-30T00:16:17.054Z,4.05
2023-03-30T00:18:45.795Z,4.10
2023-03-30T00:21:18.465Z,3.70
2023-03-30T00:23:48.222Z,3.83
2023-03-30T00:26:17.398Z,3.78
2023-03-30T00:28:47.315Z,3.85
2023-03-30T00:31:16.680Z,3.53
2023-03-30T00:33:46.826Z,3.10
2023-03-30T00:36:17.262Z,3.58
2023-03-30T00:38:48.496Z,3.30
2023-03-30T00:41:17.869Z,3.60
2023-03-30T00:44:01.794Z,3.10
2023-03-30T00:46:31.150Z,3.15
2023-03-30T00:49:04.151Z,3.25
2023-03-30T00:51:34.040Z,3.05
2023-03-30T00:54:07.276Z,2.67
2023-03-30T00:56:36.051Z,3.88
2023-03-30T00:59:06.425Z,3.67
2023-03-30T01:01:39.050Z,3.60
2023-03-30T01:04:10.085Z,2.90
2023-03-30T01:06:40.305Z,3.05
2023-03-30T01:09:09.536Z,3.58
2023-03-30T01:11:37.791Z,3.65
2023-03-30T01:14:09.713Z,3.55
2023-03-30T01:16:43.477Z,3.70
2023-03-30T01:19:40.396Z,4.05
2023-03-30T01:22:28.832Z,3.30
2023-03-30T01:25:20.992Z,3.80
2023-03-30T01:28:22.431Z,3.72
2023-03-30T01:34:02.262Z,3.20
2023-03-30T01:36:58.036Z,3.88
2023-03-30T01:39:36.520Z,3.88
2023-03-30T01:42:13.067Z,4.25
2023-03-30T01:44:48.148Z,4.30
2023-03-30T01:47:21.123Z,3.60
2023-03-30T01:49:57.370Z,3.67
2023-03-30T01:52:30.517Z,4.00
2023-03-30T01:55:04.879Z,4.20
2023-03-30T01:57:37.119Z,4.70
2023-03-30T02:00:14.377Z,4.68
2023-03-30T02:02:45.927Z,5.43
2023-03-30T02:05:18.026Z,5.95
2023-03-30T02:07:51.078Z,5.43
2023-03-30T02:10:22.908Z,5.50
2023-03-30T02:12:52.569Z,5.55
2023-03-30T02:15:21.309Z,6.38
2023-03-30T02:17:50.024Z,6.80
2023-03-30T02:20:19.068Z,5.97
2023-03-30T02:22:47.802Z,6.07
2023-03-30T02:25:16.220Z,5.57
2023-03-30T02:27:46.840Z,5.93
2023-03-30T02:30:15.866Z,5.40
2023-03-30T02:32:46.984Z,5.22
2023-03-30T02:35:22.508Z,5.65
2023-03-30T02:38:13.018Z,5.38
2023-03-30T02:40:44.854Z,5.70
2023-03-30T02:43:25.148Z,6.18
2023-03-30T02:45:55.131Z,5.43
2023-03-30T02:48:33.292Z,4.80
2023-03-30T02:51:19.181Z,5.78
2023-03-30T02:53:50.359Z,5.80
2023-03-30T02:56:25.273Z,5.40
2023-03-30T02:58:57.666Z,5.45
2023-03-30T03:01:29.984Z,6.10
2023-03-30T03:03:59.429Z,4.78
2023-03-30T03:06:28.260Z,5.32
2023-03-30T03:08:57.589Z,4.75
2023-03-30T03:11:26.098Z,5.63
2023-03-30T03:13:56.628Z,5.10
2023-03-30T03:16:25.075Z,4.45
2023-03-30T03:18:53.744Z,4.68
2023-03-30T03:21:21.941Z,4.20
2023-03-30T03:23:50.576Z,4.45
2023-03-30T03:26:18.850Z,4.40
2023-03-30T03:28:47.390Z,4.30
2023-03-30T03:31:17.063Z,4.30
2023-03-30T03:33:46.106Z,4.13
2023-03-30T03:36:14.391Z,4.47
2023-03-30T03:38:42.992Z,4.13
2023-03-30T03:41:11.282Z,4.90
2023-03-30T03:43:39.732Z,4.45
2023-03-30T03:46:08.204Z,4.40
2023-03-30T03:48:38.543Z,5.15
2023-03-30T03:51:07.174Z,5.00
2023-03-30T03:53:35.814Z,5.18
2023-03-30T03:56:04.165Z,5.47
2023-03-30T03:58:32.741Z,5.45
2023-03-30T04:01:02.041Z,5.50
2023-03-30T04:03:30.865Z,5.30
2023-03-30T04:06:03.695Z,5.07
2023-03-30T04:08:32.237Z,5.70
2023-03-30T04:11:08.006Z,5.15
2023-03-30T04:13:36.860Z,5.60
2023-03-30T04:16:05.477Z,5.50
2023-03-30T04:18:34.698Z,5.15
2023-03-30T04:21:05.788Z,5.88
2023-03-30T04:23:35.026Z,5.18
2023-03-30T04:26:04.664Z,5.47
2023-03-30T04:28:34.461Z,4.88
2023-03-30T04:31:04.510Z,4.55
2023-03-30T04:33:34.965Z,5.03
2023-03-30T04:36:04.780Z,4.47
2023-03-30T04:38:33.379Z,5.13
2023-03-30T04:41:02.429Z,4.68
2023-03-30T04:43:31.505Z,5.72
2023-03-30T04:45:59.900Z,6.65
2023-03-30T04:48:28.551Z,5.00
2023-03-30T04:50:59.129Z,5.27
2023-03-30T04:53:29.229Z,5.57
2023-03-30T04:55:57.443Z,5.68
2023-03-30T04:58:26.140Z,5.63
2023-03-30T05:00:54.773Z,5.88
2023-03-30T05:03:23.677Z,5.68
2023-03-30T05:05:52.099Z,6.00
2023-03-30T05:08:20.915Z,5.82
2023-03-30T05:10:50.800Z,6.28
2023-03-30T05:13:19.547Z,5.85
2023-03-30T05:15:54.319Z,5.88
2023-03-30T05:18:22.966Z,5.53
2023-03-30T05:20:51.557Z,5.88
2023-03-30T05:23:20.037Z,5.07
2023-03-30T05:25:51.634Z,6.38
2023-03-30T05:28:21.088Z,5.03
2023-03-30T05:30:54.764Z,5.63
2023-03-30T05:33:24.672Z,5.93
2023-03-30T05:35:56.616Z,7.15
2023-03-30T05:38:28.922Z,5.32
2023-03-30T05:40:59.640Z,5.47
2023-03-30T05:43:28.833Z,5.85
2023-03-30T05:45:58.065Z,5.82
2023-03-30T05:48:27.085Z,6.00
2023-03-30T05:50:55.939Z,5.45
2023-03-30T05:53:25.322Z,6.22
2023-03-30T05:55:54.009Z,6.03
2023-03-30T05:58:24.880Z,6.10
2023-03-30T06:00:54.488Z,6.20
2023-03-30T06:03:23.934Z,6.32
2023-03-30T06:05:54.624Z,6.20
2023-03-30T06:08:23.847Z,6.13
2023-03-30T06:10:56.585Z,5.78
2023-03-30T06:13:27.523Z,6.00
2023-03-30T06:15:57.157Z,6.17
2023-03-30T06:18:26.589Z,6.38
2023-03-30T06:20:55.628Z,6.03
2023-03-30T06:23:25.262Z,5.65
2023-03-30T06:25:55.309Z,5.15
2023-03-30T06:28:25.267Z,4.83
2023-03-30T06:30:55.674Z,4.85
2023-03-30T06:33:25.736Z,5.88
2023-03-30T06:35:55.648Z,5.73
2023-03-30T06:38:25.041Z,5.50
2023-03-30T06:40:53.581Z,5.25
2023-03-30T06:43:24.080Z,4.72
2023-03-30T06:45:54.918Z,4.72
2023-03-30T06:48:25.150Z,5.50
2023-03-30T06:50:54.622Z,5.30
2023-03-30T06:53:23.709Z,5.13
2023-03-30T06:55:53.567Z,6.03
2023-03-30T06:58:22.905Z,5.05
2023-03-30T07:00:51.899Z,5.43
2023-03-30T07:03:22.109Z,5.18
2023-03-30T07:05:51.984Z,5.93
2023-03-30T07:08:21.608Z,5.93
2023-03-30T07:10:51.456Z,5.88
2023-03-30T07:13:19.764Z,6.57
2023-03-30T07:15:48.970Z,5.57
2023-03-30T07:18:17.761Z,5.10
2023-03-30T07:20:48.420Z,5.90
2023-03-30T07:23:16.794Z,5.20
2023-03-30T07:25:46.006Z,4.80
2023-03-30T07:28:15.352Z,5.10
2023-03-30T07:30:44.431Z,5.95
2023-03-30T07:33:12.980Z,5.35
2023-03-30T07:35:45.067Z,4.07
2023-03-30T07:38:15.625Z,4.65
2023-03-30T07:40:44.288Z,4.82
2023-03-30T07:43:12.756Z,4.88
2023-03-30T07:45:41.475Z,4.22
2023-03-30T07:48:10.257Z,4.53
2023-03-30T07:50:39.289Z,3.22
2023-03-30T07:53:08.431Z,3.42
2023-03-30T07:55:38.436Z,3.17
2023-03-30T07:58:07.961Z,3.40
2023-03-30T08:00:37.758Z,3.47
2023-03-30T08:03:06.537Z,3.42
2023-03-30T08:05:35.816Z,3.00
2023-03-30T08:08:04.454Z,3.03
2023-03-30T08:10:33.981Z,3.45
2023-03-30T08:13:04.810Z,2.88
2023-03-30T08:15:33.920Z,3.58
2023-03-30T08:18:06.898Z,6.68
2023-03-30T08:20:36.532Z,4.25
2023-03-30T08:23:05.447Z,4.28
2023-03-30T08:25:34.759Z,3.58
2023-03-30T08:28:05.934Z,3.40
2023-03-30T08:30:35.151Z,4.13
2023-03-30T08:33:04.044Z,4.03
2023-03-30T08:35:32.824Z,3.65
2023-03-30T08:38:01.277Z,2.97
2023-03-30T08:40:30.527Z,3.30
2023-03-30T08:43:11.600Z,3.00
2023-03-30T08:45:42.863Z,3.33
2023-03-30T08:48:17.160Z,3.00
2023-03-30T08:50:49.474Z,3.05
2023-03-30T08:53:17.992Z,3.95
2023-03-30T08:55:48.627Z,3.63
2023-03-30T08:58:25.121Z,3.58
2023-03-30T09:00:57.610Z,3.38
2023-03-30T09:03:29.539Z,3.38
2023-03-30T09:06:01.957Z,3.40
2023-03-30T09:08:32.267Z,3.30
2023-03-30T09:11:02.619Z,3.40
2023-03-30T09:13:35.157Z,3.10
2023-03-30T09:16:11.757Z,3.08
2023-03-30T09:18:45.370Z,3.20
2023-03-30T09:21:14.910Z,2.85
2023-03-30T09:23:44.358Z,3.15
2023-03-30T09:26:20.724Z,3.60
2023-03-30T09:28:57.805Z,2.97
2023-03-30T09:31:32.322Z,3.08
2023-03-30T09:34:07.894Z,3.40
2023-03-30T09:36:41.427Z,3.85
2023-03-30T09:39:19.893Z,2.92
2023-03-30T09:42:00.273Z,3.30
2023-03-30T09:44:37.564Z,2.58
2023-03-30T09:47:20.822Z,2.92
2023-03-30T09:49:50.162Z,2.78
2023-03-30T09:52:22.122Z,3.58
2023-03-30T09:54:51.351Z,3.13
2023-03-30T09:57:29.255Z,2.85
2023-03-30T10:00:01.093Z,2.63
2023-03-30T10:02:31.710Z,3.60
2023-03-30T10:05:03.655Z,3.00
2023-03-30T10:07:34.996Z,3.15
2023-03-30T10:10:15.330Z,2.90
2023-03-30T10:12:44.387Z,3.13
2023-03-30T10:15:19.760Z,3.45
2023-03-30T10:17:51.583Z,2.97
2023-03-30T10:20:27.033Z,2.95
2023-03-30T10:22:57.347Z,3.95
2023-03-30T10:25:29.782Z,3.55
2023-03-30T10:28:01.546Z,3.50
2023-03-30T10:30:33.051Z,2.58
2023-03-30T10:35:35.982Z,3.13
2023-03-30T10:38:05.958Z,3.22
2023-03-30T10:40:36.892Z,2.70
2023-03-30T10:43:07.853Z,2.72
2023-03-30T10:45:40.926Z,2.95
2023-03-30T10:48:36.229Z,2.60
2023-03-30T10:51:12.290Z,2.65
2023-03-30T10:53:48.069Z,2.75
2023-03-30T10:56:24.281Z,3.15
2023-03-30T10:59:06.264Z,2.45
2023-03-30T11:01:43.986Z,2.25
2023-03-30T11:04:23.537Z,2.15
2023-03-30T11:06:54.709Z,2.60
2023-03-30T11:09:26.245Z,3.33
2023-03-30T11:11:57.746Z,2.50
2023-03-30T11:14:29.366Z,2.40
2023-03-30T11:17:02.007Z,2.28
2023-03-30T11:19:33.538Z,4.05
2023-03-30T11:22:06.829Z,4.75
2023-03-30T11:24:35.648Z,3.78
2023-03-30T11:27:06.927Z,4.05
2023-03-30T11:32:17.872Z,2.40
2023-03-30T11:34:55.067Z,3.38
2023-03-30T11:37:30.005Z,4.97
2023-03-30T11:40:04.261Z,4.45
2023-03-30T11:42:33.606Z,3.53
2023-03-30T11:45:02.881Z,2.53
2023-03-30T11:47:46.887Z,2.95
2023-03-30T11:50:25.684Z,3.10
2023-03-30T11:53:01.231Z,2.85
2023-03-30T11:55:40.969Z,3.28
2023-03-30T11:58:16.055Z,3.15
2023-03-30T12:00:50.872Z,2.70
2023-03-30T12:03:37.570Z,5.00
2023-03-30T12:06:23.594Z,2.28
2023-03-30T12:09:02.981Z,4.07
2023-03-30T12:11:36.603Z,2.42
2023-03-30T12:14:13.869Z,2.85
2023-03-30T12:16:47.056Z,3.05
2023-03-30T12:19:18.913Z,2.90
2023-03-30T12:21:53.441Z,3.92
2023-03-30T12:24:24.992Z,3.15
2023-03-30T12:32:12.328Z,3.10
2023-03-30T12:34:45.192Z,2.83
2023-03-30T12:37:15.035Z,3.10
2023-03-30T12:39:49.143Z,4.85
2023-03-30T12:42:34.838Z,5.00
2023-03-30T12:45:37.544Z,3.10
2023-03-30T12:48:30.732Z,4.85
2023-03-30T12:51:09.174Z,4.85
2023-03-30T12:54:01.963Z,3.97
2023-03-30T12:56:38.593Z,6.85
2023-03-30T12:59:30.813Z,3.88
2023-03-30T13:02:05.732Z,3.53
2023-03-30T13:04:37.906Z,3.45
2023-03-30T13:07:08.982Z,3.40
2023-03-30T13:09:54.694Z,3.43
2023-03-30T13:12:32.590Z,3.97
2023-03-30T13:15:03.671Z,3.72
2023-03-30T13:20:29.115Z,3.80
2023-03-30T13:23:22.818Z,3.67
2023-03-30T13:25:54.508Z,4.20
2023-03-30T13:28:48.816Z,3.97
2023-03-30T13:31:27.949Z,4.03
2023-03-30T13:34:01.683Z,3.70
2023-03-30T13:36:31.982Z,3.60
2023-03-30T13:39:07.693Z,5.60
2023-03-30T13:41:47.946Z,3.85
2023-03-30T13:44:34.158Z,3.50
2023-03-30T13:47:11.581Z,4.18
2023-03-30T13:49:47.973Z,4.13
2023-03-30T13:52:19.105Z,5.03
2023-03-30T13:54:49.265Z,12.43
2023-03-30T13:57:20.908Z,5.65
2023-03-30T13:59:52.488Z,4.15
2023-03-30T14:04:50.890Z,5.57
2023-03-30T14:07:21.177Z,5.35
2023-03-30T14:10:08.702Z,5.28
2023-03-30T14:12:39.745Z,4.45
2023-03-30T14:15:18.166Z,4.50
2023-03-30T14:17:52.172Z,5.40
2023-03-30T14:20:29.867Z,5.45
2023-03-30T14:23:00.492Z,5.03
2023-03-30T14:25:33.471Z,4.10
2023-03-30T14:28:04.611Z,4.72
2023-03-30T14:33:08.069Z,4.68
2023-03-30T14:35:41.382Z,4.50
2023-03-30T14:38:17.233Z,4.95
2023-03-30T14:40:48.068Z,5.45
2023-03-30T14:43:19.902Z,5.20
2023-03-30T14:45:48.655Z,5.13
2023-03-30T14:48:24.021Z,4.97
2023-03-30T14:50:52.563Z,5.30
2023-03-30T14:53:25.573Z,4.93
2023-03-30T14:55:57.346Z,5.80
2023-03-30T14:58:27.021Z,5.47
2023-03-30T15:00:58.892Z,5.60
2023-03-30T15:03:33.874Z,5.57
2023-03-30T15:06:04.223Z,8.52
2023-03-30T15:08:34.479Z,7.00
2023-03-30T15:11:09.199Z,7.00
2023-03-30T15:13:39.356Z,10.50
2023-03-30T15:16:08.580Z,7.17
2023-03-30T15:18:38.024Z,8.38
2023-03-30T15:21:09.936Z,7.50
2023-03-30T15:23:42.134Z,7.97
2023-03-30T15:26:13.454Z,8.52
2023-03-30T15:28:44.761Z,9.50
2023-03-30T15:31:16.496Z,9.57
2023-03-30T15:36:15.803Z,8.23
2023-03-30T15:38:47.857Z,9.02
2023-03-30T15:41:19.244Z,9.75
2023-03-30T15:43:56.050Z,8.40
2023-03-30T15:46:25.189Z,8.82
2023-03-30T15:48:54.680Z,8.88
2023-03-30T15:51:27.979Z,8.43
2023-03-30T15:53:59.568Z,11.10
2023-03-30T15:56:32.846Z,11.65
2023-03-30T15:59:01.770Z,11.68
2023-03-30T16:01:43.453Z,10.85
2023-03-30T16:04:15.257Z,14.10
2023-03-30T16:06:46.727Z,11.07
2023-03-30T16:09:16.094Z,13.05
2023-03-30T16:11:47.120Z,10.20
2023-03-30T16:14:18.446Z,11.20
2023-03-30T16:16:47.071Z,10.52
2023-03-30T16:19:17.577Z,11.43
2023-03-30T16:21:46.342Z,11.27
2023-03-30T16:24:14.859Z,9.40
2023-03-30T16:26:46.866Z,9.85
2023-03-30T16:31:45.313Z,8.45
2023-03-30T16:34:13.696Z,8.38
2023-03-30T16:36:44.210Z,7.93
2023-03-30T16:39:18.257Z,8.00
2023-03-30T16:41:49.682Z,9.07
2023-03-30T16:44:18.650Z,8.93
2023-03-30T16:46:47.682Z,9.38
2023-03-30T16:49:17.779Z,9.25
2023-03-30T16:51:46.683Z,8.20
2023-03-30T16:54:29.646Z,11.82
2023-03-30T16:57:02.432Z,11.90
2023-03-30T16:59:32.920Z,12.35
2023-03-30T17:02:03.228Z,9.27
2023-03-30T17:04:31.765Z,10.30
2023-03-30T17:07:00.976Z,10.15
2023-03-30T17:09:30.060Z,12.07
2023-03-30T17:11:58.836Z,12.30
2023-03-30T17:14:30.681Z,10.88
2023-03-30T17:16:59.496Z,12.40
2023-03-30T17:19:29.223Z,12.70
2023-03-30T17:21:58.076Z,13.45
2023-03-30T17:24:26.523Z,12.90
2023-03-30T17:26:56.316Z,11.88
2023-03-30T17:29:24.758Z,12.63
2023-03-30T17:31:55.015Z,12.40
2023-03-30T17:34:23.433Z,12.38
2023-03-30T17:36:51.985Z,12.00
2023-03-30T17:39:20.585Z,12.30
2023-03-30T17:41:49.384Z,11.65
2023-03-30T17:44:17.625Z,17.00
2023-03-30T17:46:46.371Z,16.77
2023-03-30T17:49:18.548Z,16.20
2023-03-30T17:51:47.281Z,11.80
2023-03-30T17:54:15.876Z,12.70
2023-03-30T17:56:44.813Z,12.68
2023-03-30T17:59:13.539Z,12.25
2023-03-30T18:01:42.343Z,13.18
2023-03-30T18:04:10.863Z,12.48
2023-03-30T18:06:41.842Z,13.27
2023-03-30T18:09:15.705Z,11.38
2023-03-30T18:11:44.552Z,12.00
2023-03-30T18:14:12.875Z,15.55
2023-03-30T18:16:43.805Z,13.75
2023-03-30T18:19:13.320Z,14.68
2023-03-30T18:21:43.508Z,11.38
2023-03-30T18:24:12.203Z,12.18
2023-03-30T18:26:43.112Z,10.70
2023-03-30T18:29:20.541Z,9.93
2023-03-30T18:31:49.514Z,10.48
2023-03-30T18:34:19.751Z,10.75
2023-03-30T18:36:50.130Z,10.17
2023-03-30T18:39:20.185Z,10.75
2023-03-30T18:41:49.121Z,10.95
2023-03-30T18:44:17.975Z,11.45
2023-03-30T18:46:48.299Z,11.32
2023-03-30T18:49:17.491Z,11.85
2023-03-30T18:51:46.475Z,16.15
2023-03-30T18:54:16.253Z,13.68
2023-03-30T18:56:46.118Z,11.85
2023-03-30T18:59:15.045Z,11.77
2023-03-30T19:01:46.005Z,10.38
2023-03-30T19:04:14.423Z,11.82
2023-03-30T19:06:44.618Z,12.65
2023-03-30T19:09:12.940Z,13.93
2023-03-30T19:11:43.150Z,12.55
2023-03-30T19:14:12.268Z,13.98
2023-03-30T19:16:42.121Z,12.57
2023-03-30T19:19:14.927Z,14.07
2023-03-30T19:21:46.723Z,15.38
2023-03-30T19:24:15.265Z,17.23
2023-03-30T19:26:45.479Z,15.30
2023-03-30T19:29:14.441Z,20.10
2023-03-30T19:31:43.221Z,22.88
2023-03-30T19:34:11.897Z,17.40
2023-03-30T19:36:40.742Z,11.88
2023-03-30T19:39:09.370Z,12.23
2023-03-30T19:41:38.133Z,15.30
2023-03-30T19:44:07.981Z,14.30
2023-03-30T19:46:37.970Z,12.63
2023-03-30T19:49:06.999Z,12.80
2023-03-30T19:51:35.693Z,14.45
2023-03-30T19:54:04.590Z,13.45
2023-03-30T19:56:33.482Z,14.90
2023-03-30T19:59:01.882Z,16.45
2023-03-30T20:01:32.073Z,18.35
2023-03-30T20:04:00.894Z,14.45
2023-03-30T20:06:29.595Z,20.52
2023-03-30T20:08:57.984Z,22.58
2023-03-30T20:11:26.687Z,22.45
2023-03-30T20:13:55.671Z,19.17
2023-03-30T20:16:26.179Z,19.92
2023-03-30T20:18:57.248Z,13.10
2023-03-30T20:23:58.758Z,13.60
2023-03-30T20:26:27.809Z,12.23
2023-03-30T20:28:56.714Z,12.20
2023-03-30T20:31:25.826Z,10.40
2023-03-30T20:33:55.933Z,11.20
2023-03-30T20:36:26.069Z,11.52
2023-03-30T20:38:55.484Z,11.73
2023-03-30T20:41:25.053Z,12.23
2023-03-30T20:43:57.365Z,12.95
2023-03-30T20:46:35.571Z,12.65
2023-03-30T20:49:06.133Z,10.93
2023-03-30T20:51:35.199Z,10.70
2023-03-30T20:54:03.493Z,10.65
2023-03-30T20:56:32.766Z,11.15
2023-03-30T20:59:02.970Z,10.65
2023-03-30T21:01:32.088Z,10.88
2023-03-30T21:04:02.608Z,11.63
2023-03-30T21:06:33.461Z,10.65
2023-03-30T21:09:05.129Z,10.57
2023-03-30T21:11:38.836Z,10.82
2023-03-30T21:14:08.012Z,10.93
2023-03-30T21:16:38.203Z,11.23
2023-03-30T21:19:07.143Z,10.95
2023-03-30T21:21:39.063Z,10.88
2023-03-30T21:24:08.942Z,11.32
2023-03-30T21:26:38.182Z,10.35
2023-03-30T21:29:07.017Z,12.48
2023-03-30T21:31:35.654Z,11.95
2023-03-30T21:34:04.306Z,13.10
2023-03-30T21:36:32.980Z,12.68
2023-03-30T21:39:02.997Z,12.55
2023-03-30T21:41:31.749Z,12.60
2023-03-30T21:44:00.114Z,11.93
2023-03-30T21:46:29.302Z,12.65
2023-03-30T21:48:57.593Z,12.35
2023-03-30T21:51:28.174Z,12.00
2023-03-30T21:53:57.325Z,12.63
2023-03-30T21:56:29.898Z,12.13
2023-03-30T21:58:58.527Z,13.13
2023-03-30T22:01:27.513Z,13.75
2023-03-30T22:03:56.742Z,14.32
2023-03-30T22:06:25.871Z,12.82
2023-03-30T22:08:54.202Z,14.13
2023-03-30T22:11:24.043Z,13.65
2023-03-30T22:13:55.474Z,12.90
2023-03-30T22:16:25.970Z,13.13
2023-03-30T22:18:54.374Z,13.10
2023-03-30T22:21:25.091Z,13.65
2023-03-30T22:23:54.744Z,14.23
2023-03-30T22:26:23.575Z,13.63
2023-03-30T22:28:53.271Z,13.15
2023-03-30T22:31:22.134Z,12.43
2023-03-30T22:33:50.896Z,12.80
2023-03-30T22:36:21.579Z,13.40
2023-03-30T22:38:51.015Z,13.05
2023-03-30T22:41:24.360Z,13.93
2023-03-30T22:43:55.412Z,14.63
2023-03-30T22:46:24.739Z,14.32
2023-03-30T22:48:55.692Z,14.13
2023-03-30T22:51:26.511Z,14.35
2023-03-30T22:53:56.756Z,14.38
2023-03-30T22:56:25.958Z,13.82
2023-03-30T22:58:57.954Z,14.15
2023-03-30T23:01:29.354Z,14.77
2023-03-30T23:03:59.743Z,14.23
2023-03-30T23:06:28.612Z,14.70
2023-03-30T23:08:56.921Z,14.75
2023-03-30T23:11:26.511Z,14.50
2023-03-30T23:13:57.087Z,15.02
2023-03-30T23:16:27.815Z,14.13
2023-03-30T23:18:56.222Z,14.20
2023-03-30T23:21:24.791Z,14.18
2023-03-30T23:23:53.063Z,13.65
2023-03-30T23:26:21.552Z,14.95
2023-03-30T23:28:49.793Z,14.50
2023-03-30T23:31:19.944Z,15.45
2023-03-30T23:33:48.161Z,14.65
2023-03-30T23:36:19.320Z,14.88
2023-03-30T23:38:48.192Z,14.35
2023-03-30T23:41:18.577Z,14.52
2023-03-30T23:43:47.624Z,14.73
2023-03-30T23:46:16.421Z,15.40
2023-03-30T23:48:46.091Z,13.52
2023-03-30T23:51:14.559Z,14.55
2023-03-30T23:53:42.820Z,14.68
2023-03-30T23:56:13.335Z,14.45
2023-03-30T23:58:41.777Z,14.45
